Time;durP1;ratioP1;P1;durP2;ratioP2;P2;SDS_P1;SDS_P2;PMS_P1;PMS_P2;Temp;Humidity;BMP_temperature;BMP_pressure;BME280_temperature;BME280_humidity;BME280_pressure;Samples;Min_cycle;Max_cycle;Signal;HPM_P1;HPM_P2
2023/07/06 00:00:19;;;;;;;3.42;1.15;;;;;;;;;;5050842;28;20060;-58
2023/07/06 00:02:46;;;;;;;3.00;1.55;;;;;;;;;;5051086;28;20061;-57
2023/07/06 00:05:12;;;;;;;4.03;1.40;;;;;;;;;;5051532;28;20056;-58
2023/07/06 00:07:39;;;;;;;4.55;1.40;;;;;;;;;;5050778;28;20049;-58
2023/07/06 00:10:05;;;;;;;4.18;1.35;;;;;;;;;;5054246;28;20056;-58
2023/07/06 00:12:32;;;;;;;5.53;1.60;;;;;;;;;;5055216;28;20048;-58
2023/07/06 00:14:58;;;;;;;3.13;1.33;;;;;;;;;;5055285;28;20406;-58
2023/07/06 00:17:25;;;;;;;5.75;1.20;;;;;;;;;;5055356;28;20063;-58
2023/07/06 00:19:51;;;;;;;5.25;1.33;;;;;;;;;;5055059;28;20049;-58
2023/07/06 00:22:18;;;;;;;3.47;1.30;;;;;;;;;;5054970;28;20142;-58
2023/07/06 00:24:46;;;;;;;4.15;1.15;;;;;;;;;;5054815;28;20053;-57
2023/07/06 00:27:15;;;;;;;2.92;1.52;;;;;;;;;;5055145;28;20056;-58
2023/07/06 00:29:56;;;;;;;4.40;1.17;;;;;;;;;;5055009;28;20056;-57
2023/07/06 00:32:27;;;;;;;3.80;1.27;;;;;;;;;;5054859;28;20653;-58
2023/07/06 00:34:55;;;;;;;6.05;1.70;;;;;;;;;;5054725;28;20500;-58
2023/07/06 00:37:22;;;;;;;3.15;1.05;;;;;;;;;;5055067;28;20102;-58
2023/07/06 00:39:51;;;;;;;7.33;1.80;;;;;;;;;;5054858;28;20063;-58
2023/07/06 00:42:20;;;;;;;2.95;1.20;;;;;;;;;;5054771;28;20091;-58
2023/07/06 00:44:48;;;;;;;3.75;1.33;;;;;;;;;;5054622;28;20154;-58
2023/07/06 00:47:15;;;;;;;4.22;1.48;;;;;;;;;;5054614;28;20166;-58
2023/07/06 00:49:42;;;;;;;5.88;1.48;;;;;;;;;;5054437;28;20102;-58
2023/07/06 00:52:10;;;;;;;6.55;1.60;;;;;;;;;;5054589;28;20049;-57
2023/07/06 00:54:40;;;;;;;3.63;1.52;;;;;;;;;;5054720;28;20119;-58
2023/07/06 00:57:07;;;;;;;3.17;1.40;;;;;;;;;;5054323;28;20097;-58
2023/07/06 00:59:36;;;;;;;4.05;1.80;;;;;;;;;;5054320;28;20488;-57
2023/07/06 01:02:02;;;;;;;3.92;1.70;;;;;;;;;;5054319;28;20408;-57
2023/07/06 01:04:30;;;;;;;3.05;1.70;;;;;;;;;;5054218;28;20048;-58
2023/07/06 01:06:56;;;;;;;;;;;;;;;;;;5054887;28;20041;-58
2023/07/06 01:09:25;;;;;;;4.18;1.65;;;;;;;;;;5053976;28;19928;-58
2023/07/06 01:11:55;;;;;;;3.40;1.90;;;;;;;;;;5054371;28;20060;-58
2023/07/06 01:14:21;;;;;;;4.07;1.80;;;;;;;;;;5054235;28;20053;-57
2023/07/06 01:16:54;;;;;;;3.33;1.70;;;;;;;;;;5054263;28;20057;-57
2023/07/06 01:19:44;;;;;;;3.83;1.63;;;;;;;;;;5053562;28;20122;-58
2023/07/06 01:22:29;;;;;;;4.93;1.92;;;;;;;;;;5053923;28;20516;-58
2023/07/06 01:24:59;;;;;;;5.00;2.00;;;;;;;;;;5054061;28;20053;-58
2023/07/06 01:27:44;;;;;;;6.32;2.10;;;;;;;;;;5054051;28;20459;-58
2023/07/06 01:30:10;;;;;;;6.30;1.98;;;;;;;;;;5054041;28;20124;-58
2023/07/06 01:32:39;;;;;;;6.32;1.98;;;;;;;;;;5053716;28;20102;-58
2023/07/06 01:35:10;;;;;;;4.32;1.90;;;;;;;;;;5053654;28;20120;-58
2023/07/06 01:37:39;;;;;;;6.07;2.20;;;;;;;;;;5053911;28;20055;-58
2023/07/06 01:40:09;;;;;;;5.43;2.08;;;;;;;;;;5053641;28;20048;-58
2023/07/06 01:42:37;;;;;;;6.28;2.50;;;;;;;;;;5053467;28;20500;-57
2023/07/06 01:45:05;;;;;;;5.50;2.20;;;;;;;;;;5053450;28;20386;-58
2023/07/06 01:47:34;;;;;;;6.13;2.30;;;;;;;;;;5053076;28;20443;-58
2023/07/06 01:50:02;;;;;;;4.30;2.28;;;;;;;;;;5053223;28;20053;-58
2023/07/06 01:52:43;;;;;;;5.22;2.15;;;;;;;;;;5053537;28;20049;-57
2023/07/06 01:55:28;;;;;;;4.50;1.90;;;;;;;;;;5053557;28;20056;-58
2023/07/06 01:58:04;;;;;;;5.28;2.15;;;;;;;;;;5053294;28;20094;-57
2023/07/06 02:00:31;;;;;;;5.93;2.33;;;;;;;;;;5053377;28;20122;-57
2023/07/06 02:02:59;;;;;;;5.45;2.10;;;;;;;;;;5053138;28;20049;-58
2023/07/06 02:05:26;;;;;;;4.22;2.17;;;;;;;;;;5053357;28;20132;-58
2023/07/06 02:07:53;;;;;;;5.75;2.22;;;;;;;;;;5052954;28;20056;-58
2023/07/06 02:10:22;;;;;;;5.47;2.42;;;;;;;;;;5053269;28;20542;-58
2023/07/06 02:12:49;;;;;;;4.32;1.83;;;;;;;;;;5053050;28;20048;-58
2023/07/06 02:15:19;;;;;;;6.27;2.33;;;;;;;;;;5053177;28;20045;-58
2023/07/06 02:17:46;;;;;;;7.22;2.25;;;;;;;;;;5053104;28;20045;-57
2023/07/06 02:20:15;;;;;;;4.80;2.10;;;;;;;;;;5052956;28;20057;-58
2023/07/06 02:22:42;;;;;;;5.03;2.22;;;;;;;;;;5038750;28;20410;-58
2023/07/06 02:25:08;;;;;;;5.85;1.92;;;;;;;;;;5052747;28;20055;-58
2023/07/06 02:27:36;;;;;;;7.55;2.50;;;;;;;;;;5052865;28;20452;-58
2023/07/06 02:30:04;;;;;;;4.15;2.22;;;;;;;;;;5052898;28;20037;-58
2023/07/06 02:32:31;;;;;;;5.35;2.35;;;;;;;;;;5051996;28;20053;-58
2023/07/06 02:34:58;;;;;;;6.63;2.70;;;;;;;;;;5052780;28;20041;-58
2023/07/06 02:37:25;;;;;;;8.32;3.00;;;;;;;;;;5052556;28;20499;-57
2023/07/06 02:39:51;;;;;;;5.00;2.30;;;;;;;;;;5052313;28;20535;-58
2023/07/06 02:42:18;;;;;;;5.00;1.98;;;;;;;;;;5052331;28;20071;-58
2023/07/06 02:44:45;;;;;;;8.40;2.17;;;;;;;;;;5052575;28;20064;-58
2023/07/06 02:47:12;;;;;;;5.68;2.63;;;;;;;;;;5052288;28;20049;-57
2023/07/06 02:49:39;;;;;;;4.20;2.17;;;;;;;;;;5052604;28;20119;-58
2023/07/06 02:52:05;;;;;;;5.97;2.17;;;;;;;;;;5052423;28;20069;-58
2023/07/06 02:54:32;;;;;;;4.33;2.53;;;;;;;;;;5052158;28;20041;-58
2023/07/06 02:57:02;;;;;;;6.10;2.30;;;;;;;;;;5052176;28;20527;-58
2023/07/06 02:59:32;;;;;;;5.45;2.40;;;;;;;;;;5052109;28;20048;-57
2023/07/06 03:01:59;;;;;;;5.47;2.15;;;;;;;;;;5052340;28;20055;-58
2023/07/06 03:04:27;;;;;;;5.18;2.38;;;;;;;;;;5051923;28;20054;-58
2023/07/06 03:06:55;;;;;;;4.68;2.35;;;;;;;;;;5052496;28;20106;-58
2023/07/06 03:09:23;;;;;;;5.07;2.25;;;;;;;;;;5051971;28;20049;-57
2023/07/06 03:11:52;;;;;;;4.00;2.67;;;;;;;;;;5052086;28;20056;-57
2023/07/06 03:14:22;;;;;;;6.22;2.85;;;;;;;;;;5052035;28;20045;-58
2023/07/06 03:16:48;;;;;;;6.25;2.65;;;;;;;;;;5051720;28;20104;-58
2023/07/06 03:19:15;;;;;;;5.15;2.40;;;;;;;;;;5051763;28;20049;-58
2023/07/06 03:21:42;;;;;;;4.97;2.10;;;;;;;;;;5051662;28;20570;-58
2023/07/06 03:24:09;;;;;;;8.68;2.33;;;;;;;;;;5051969;28;20480;-58
2023/07/06 03:26:36;;;;;;;4.68;2.03;;;;;;;;;;5051616;28;20570;-58
2023/07/06 03:29:03;;;;;;;;;;;;;;;;;;5047897;28;20470;-58
2023/07/06 03:31:30;;;;;;;4.43;1.83;;;;;;;;;;5049515;28;20482;-58
2023/07/06 03:33:56;;;;;;;9.20;2.45;;;;;;;;;;5051502;28;20080;-58
2023/07/06 03:36:23;;;;;;;4.85;1.92;;;;;;;;;;5051523;28;20048;-58
2023/07/06 03:38:49;;;;;;;4.18;2.30;;;;;;;;;;5051623;28;20048;-58
2023/07/06 03:41:17;;;;;;;10.50;2.72;;;;;;;;;;5051601;28;20064;-58
2023/07/06 03:43:44;;;;;;;5.50;2.22;;;;;;;;;;5051412;28;20087;-58
2023/07/06 03:46:12;;;;;;;6.73;2.47;;;;;;;;;;5051667;28;20061;-58
2023/07/06 03:48:46;;;;;;;5.38;2.50;;;;;;;;;;5051172;28;20581;-58
2023/07/06 03:51:13;;;;;;;5.93;2.30;;;;;;;;;;5051625;28;20052;-58
2023/07/06 03:53:39;;;;;;;5.70;1.98;;;;;;;;;;5051290;28;20045;-57
2023/07/06 03:56:06;;;;;;;4.72;2.38;;;;;;;;;;5051327;28;20090;-58
2023/07/06 03:58:33;;;;;;;5.45;2.33;;;;;;;;;;5051314;28;20049;-57
2023/07/06 04:01:00;;;;;;;4.53;2.10;;;;;;;;;;5051396;28;20064;-58
2023/07/06 04:03:27;;;;;;;5.20;2.00;;;;;;;;;;5051089;28;20136;-58
2023/07/06 04:05:53;;;;;;;6.20;2.60;;;;;;;;;;5051264;28;20048;-58
2023/07/06 04:08:21;;;;;;;7.20;2.30;;;;;;;;;;5051345;28;20100;-57
2023/07/06 04:10:48;;;;;;;7.13;2.63;;;;;;;;;;5051238;28;20049;-58
2023/07/06 04:13:15;;;;;;;8.35;2.40;;;;;;;;;;5051485;28;20400;-58
2023/07/06 04:15:44;;;;;;;5.10;2.47;;;;;;;;;;5051632;28;20072;-58
2023/07/06 04:18:11;;;;;;;5.13;2.50;;;;;;;;;;5051349;28;20111;-58
2023/07/06 04:20:37;;;;;;;7.60;2.33;;;;;;;;;;5051229;28;20080;-58
2023/07/06 04:23:04;;;;;;;8.20;2.75;;;;;;;;;;5051223;28;20061;-57
2023/07/06 04:25:32;;;;;;;6.93;2.30;;;;;;;;;;5051115;28;20070;-58
2023/07/06 04:28:02;;;;;;;4.78;2.20;;;;;;;;;;5051269;28;20094;-58
2023/07/06 04:30:32;;;;;;;7.68;2.88;;;;;;;;;;5050932;28;20077;-58
2023/07/06 04:32:59;;;;;;;5.50;2.47;;;;;;;;;;5051000;28;20045;-57
2023/07/06 04:35:26;;;;;;;5.32;2.40;;;;;;;;;;5051273;28;20378;-58
2023/07/06 04:37:53;;;;;;;6.50;2.75;;;;;;;;;;5051050;28;20073;-57
2023/07/06 04:40:21;;;;;;;4.87;2.70;;;;;;;;;;5050946;28;20095;-58
2023/07/06 04:42:50;;;;;;;7.82;2.50;;;;;;;;;;5050775;28;20833;-58
2023/07/06 04:45:17;;;;;;;7.20;2.40;;;;;;;;;;5051219;28;20449;-58
2023/07/06 04:47:44;;;;;;;7.17;2.50;;;;;;;;;;5038972;28;20053;-58
2023/07/06 04:50:22;;;;;;;4.82;2.50;;;;;;;;;;5050966;28;20451;-58
2023/07/06 04:52:51;;;;;;;7.78;2.30;;;;;;;;;;5050869;28;20045;-57
2023/07/06 04:55:22;;;;;;;2.78;2.00;;;;;;;;;;5052333;28;20056;-58
2023/07/06 04:57:50;;;;;;;5.82;2.47;;;;;;;;;;5054658;28;20056;-58
2023/07/06 05:00:24;;;;;;;5.10;2.40;;;;;;;;;;5054593;28;20136;-58
2023/07/06 05:02:52;;;;;;;4.85;2.33;;;;;;;;;;5054349;28;20500;-58
2023/07/06 05:05:18;;;;;;;;;;;;;;;;;;5054985;28;20076;-58
2023/07/06 05:07:46;;;;;;;2.37;1.97;;;;;;;;;;5054174;28;19920;-58
2023/07/06 05:10:13;;;;;;;5.70;2.10;;;;;;;;;;5053975;28;20057;-58
2023/07/06 05:12:40;;;;;;;3.65;1.90;;;;;;;;;;5054315;28;20497;-58
2023/07/06 05:15:07;;;;;;;5.72;2.35;;;;;;;;;;5054182;28;20492;-58
2023/07/06 05:17:33;;;;;;;5.90;2.20;;;;;;;;;;5054055;28;20044;-58
2023/07/06 05:20:00;;;;;;;5.18;1.98;;;;;;;;;;5053825;28;20321;-58
2023/07/06 05:22:26;;;;;;;4.00;1.98;;;;;;;;;;5053953;28;20412;-58
2023/07/06 05:24:52;;;;;;;4.60;2.25;;;;;;;;;;5054107;28;20049;-58
2023/07/06 05:27:19;;;;;;;4.13;2.30;;;;;;;;;;5053996;28;20049;-58
2023/07/06 05:29:45;;;;;;;6.15;2.30;;;;;;;;;;5054055;28;20045;-57
2023/07/06 05:32:12;;;;;;;4.47;1.90;;;;;;;;;;5053777;28;20456;-58
2023/07/06 05:34:38;;;;;;;4.20;2.10;;;;;;;;;;5053771;28;20060;-58
2023/07/06 05:37:05;;;;;;;5.40;2.27;;;;;;;;;;5053582;28;20045;-58
2023/07/06 05:39:32;;;;;;;4.90;2.10;;;;;;;;;;5053848;28;20048;-58
2023/07/06 05:41:58;;;;;;;6.93;2.38;;;;;;;;;;5053780;28;20072;-58
2023/07/06 05:44:24;;;;;;;7.70;2.33;;;;;;;;;;5053360;28;20053;-58
2023/07/06 05:46:51;;;;;;;7.35;2.17;;;;;;;;;;5053623;28;20417;-58
2023/07/06 05:49:19;;;;;;;6.45;2.33;;;;;;;;;;5053343;28;20080;-58
2023/07/06 05:51:45;;;;;;;9.02;2.25;;;;;;;;;;5053369;28;20107;-59
2023/07/06 05:54:11;;;;;;;4.30;1.85;;;;;;;;;;5053387;28;20519;-57
2023/07/06 05:56:38;;;;;;;5.53;2.10;;;;;;;;;;5053376;28;20103;-58
2023/07/06 05:59:04;;;;;;;4.50;2.05;;;;;;;;;;5052239;28;20106;-57
2023/07/06 06:01:32;;;;;;;8.00;2.50;;;;;;;;;;5053088;28;20053;-58
2023/07/06 06:03:58;;;;;;;;;;;;;;;;;;5053600;28;20408;-58
2023/07/06 06:06:26;;;;;;;4.72;2.35;;;;;;;;;;5052980;28;19964;-58
2023/07/06 06:08:53;;;;;;;5.05;2.28;;;;;;;;;;5052872;28;20049;-58
2023/07/06 06:11:21;;;;;;;4.15;2.00;;;;;;;;;;5049512;28;20046;-58
2023/07/06 06:13:49;;;;;;;5.60;2.30;;;;;;;;;;5033251;28;20049;-58
2023/07/06 06:16:16;;;;;;;5.95;2.25;;;;;;;;;;5033241;28;20069;-58
2023/07/06 06:18:44;;;;;;;3.10;1.87;;;;;;;;;;5032684;28;20488;-58
2023/07/06 06:21:10;;;;;;;5.63;1.92;;;;;;;;;;5032872;28;20063;-58
2023/07/06 06:23:37;;;;;;;5.97;2.13;;;;;;;;;;5032838;28;20057;-58
2023/07/06 06:26:03;;;;;;;4.45;1.92;;;;;;;;;;5050762;28;20057;-58
2023/07/06 06:28:30;;;;;;;4.95;2.22;;;;;;;;;;5050656;28;20067;-57
2023/07/06 06:30:56;;;;;;;4.88;2.20;;;;;;;;;;5040538;28;20045;-57
2023/07/06 06:33:23;;;;;;;3.63;1.67;;;;;;;;;;5052821;28;20056;-57
2023/07/06 06:35:50;;;;;;;4.30;2.22;;;;;;;;;;5052801;28;20053;-58
2023/07/06 06:38:17;;;;;;;;;;;;;;;;;;5053210;28;20049;-58
2023/07/06 06:40:44;;;;;;;4.85;2.58;;;;;;;;;;5052612;28;19925;-58
2023/07/06 06:43:11;;;;;;;3.33;1.90;;;;;;;;;;5052357;28;20060;-58
2023/07/06 06:45:39;;;;;;;5.22;2.30;;;;;;;;;;5052582;28;20444;-58
2023/07/06 06:48:06;;;;;;;7.32;2.33;;;;;;;;;;5019481;28;20140;-58
2023/07/06 06:50:32;;;;;;;3.53;2.13;;;;;;;;;;5034517;28;20080;-58
2023/07/06 06:52:59;;;;;;;5.50;2.08;;;;;;;;;;5048662;28;20053;-58
2023/07/06 06:55:26;;;;;;;5.85;2.15;;;;;;;;;;5051411;28;20055;-58
2023/07/06 06:57:53;;;;;;;6.55;2.20;;;;;;;;;;5051434;28;20136;-58
2023/07/06 07:00:19;;;;;;;4.50;1.88;;;;;;;;;;5051307;28;20386;-58
2023/07/06 07:02:46;;;;;;;4.97;2.25;;;;;;;;;;5051113;28;20060;-58
2023/07/06 07:05:15;;;;;;;7.32;1.98;;;;;;;;;;5051535;28;20128;-58
2023/07/06 07:07:42;;;;;;;9.00;2.10;;;;;;;;;;5050874;28;20098;-58
2023/07/06 07:10:09;;;;;;;5.93;2.25;;;;;;;;;;5052049;28;20049;-58
2023/07/06 07:12:37;;;;;;;3.80;1.95;;;;;;;;;;5052111;28;20092;-58
2023/07/06 07:15:04;;;;;;;4.13;1.95;;;;;;;;;;5051778;28;20370;-58
2023/07/06 07:17:30;;;;;;;5.13;1.90;;;;;;;;;;5051397;28;20049;-58
2023/07/06 07:19:57;;;;;;;5.43;1.73;;;;;;;;;;5051655;28;20052;-58
2023/07/06 07:22:24;;;;;;;6.82;2.45;;;;;;;;;;5052050;28;20075;-58
2023/07/06 07:24:50;;;;;;;3.55;1.90;;;;;;;;;;5052065;28;20314;-58
2023/07/06 07:27:17;;;;;;;6.50;2.65;;;;;;;;;;5051687;28;20176;-58
2023/07/06 07:29:43;;;;;;;3.78;2.15;;;;;;;;;;5051866;28;20700;-58
2023/07/06 07:32:10;;;;;;;5.80;1.90;;;;;;;;;;5051818;28;20052;-58
2023/07/06 07:34:36;;;;;;;6.88;2.03;;;;;;;;;;5051565;28;20059;-58
2023/07/06 07:37:03;;;;;;;5.35;1.98;;;;;;;;;;5051635;28;20103;-58
2023/07/06 07:39:30;;;;;;;5.55;2.10;;;;;;;;;;5051524;28;20056;-58
2023/07/06 07:41:58;;;;;;;4.07;1.77;;;;;;;;;;5051435;28;20492;-58
2023/07/06 07:44:28;;;;;;;4.13;1.90;;;;;;;;;;5051286;28;20049;-58
2023/07/06 07:46:54;;;;;;;6.80;2.15;;;;;;;;;;5051398;28;20366;-58
2023/07/06 07:49:20;;;;;;;8.48;2.50;;;;;;;;;;5051307;28;20421;-58
2023/07/06 07:51:47;;;;;;;5.40;1.95;;;;;;;;;;5051481;28;20504;-58
2023/07/06 07:54:13;;;;;;;3.15;1.80;;;;;;;;;;5051406;28;20485;-58
2023/07/06 07:56:42;;;;;;;5.30;1.75;;;;;;;;;;5051334;28;20476;-58
2023/07/06 07:59:09;;;;;;;4.35;2.05;;;;;;;;;;5051340;28;20044;-58
2023/07/06 08:01:36;;;;;;;7.63;2.40;;;;;;;;;;5051461;28;20102;-58
2023/07/06 08:04:02;;;;;;;5.27;2.10;;;;;;;;;;5051286;28;20140;-58
2023/07/06 08:06:29;;;;;;;5.82;1.98;;;;;;;;;;5051297;28;20127;-58
2023/07/06 08:08:56;;;;;;;6.30;2.38;;;;;;;;;;5051110;28;20049;-58
2023/07/06 08:11:23;;;;;;;5.50;2.00;;;;;;;;;;5051149;28;20496;-58
2023/07/06 08:13:51;;;;;;;4.38;2.08;;;;;;;;;;5051395;28;20041;-58
2023/07/06 08:16:19;;;;;;;5.60;2.28;;;;;;;;;;5051347;28;20068;-58
2023/07/06 08:18:48;;;;;;;5.28;2.33;;;;;;;;;;5051184;28;20408;-58
2023/07/06 08:21:16;;;;;;;4.68;1.80;;;;;;;;;;5051196;28;20052;-58
2023/07/06 08:24:03;;;;;;;4.90;2.35;;;;;;;;;;5051378;28;20152;-58
2023/07/06 08:26:31;;;;;;;5.40;1.98;;;;;;;;;;5051097;28;20052;-58
2023/07/06 08:28:58;;;;;;;7.93;2.20;;;;;;;;;;5050852;28;20098;-58
2023/07/06 08:31:26;;;;;;;2.93;1.67;;;;;;;;;;5054598;28;20049;-58
2023/07/06 08:33:53;;;;;;;4.10;2.20;;;;;;;;;;5054750;28;20091;-58
2023/07/06 08:36:20;;;;;;;3.72;1.85;;;;;;;;;;5054839;28;20044;-58
2023/07/06 08:38:47;;;;;;;4.68;1.65;;;;;;;;;;5054995;28;20041;-58
2023/07/06 08:41:30;;;;;;;4.60;1.70;;;;;;;;;;5054976;28;20060;-58
2023/07/06 08:43:59;;;;;;;3.90;1.50;;;;;;;;;;5054715;28;20049;-58
2023/07/06 08:46:30;;;;;;;5.18;1.63;;;;;;;;;;5054638;28;20053;-59
2023/07/06 08:48:57;;;;;;;3.95;1.60;;;;;;;;;;5054528;28;20056;-59
2023/07/06 08:51:28;;;;;;;3.60;1.80;;;;;;;;;;5054701;28;20041;-58
2023/07/06 08:54:02;;;;;;;5.15;2.25;;;;;;;;;;5054685;28;20484;-59
2023/07/06 08:56:34;;;;;;;3.88;1.70;;;;;;;;;;5054399;28;20045;-59
2023/07/06 08:59:01;;;;;;;4.78;1.90;;;;;;;;;;5054872;28;20045;-59
2023/07/06 09:01:30;;;;;;;6.00;1.80;;;;;;;;;;5054513;28;20386;-59
2023/07/06 09:03:59;;;;;;;5.03;1.67;;;;;;;;;;5054472;28;20075;-58
2023/07/06 09:06:26;;;;;;;3.63;1.83;;;;;;;;;;5054611;28;20048;-59
2023/07/06 09:08:55;;;;;;;3.97;1.67;;;;;;;;;;5054112;28;20110;-58
2023/07/06 09:11:22;;;;;;;4.05;1.90;;;;;;;;;;5054401;28;20124;-59
2023/07/06 09:13:50;;;;;;;4.40;1.77;;;;;;;;;;5054052;28;20505;-59
2023/07/06 09:16:20;;;;;;;4.85;1.70;;;;;;;;;;5054347;28;20072;-58
2023/07/06 09:18:47;;;;;;;5.97;1.80;;;;;;;;;;5054278;28;20040;-58
2023/07/06 09:21:16;;;;;;;3.45;1.98;;;;;;;;;;5054104;28;20048;-58
2023/07/06 09:23:47;;;;;;;4.75;2.17;;;;;;;;;;5053905;28;20049;-58
2023/07/06 09:26:21;;;;;;;3.42;2.03;;;;;;;;;;5053910;28;20045;-59
2023/07/06 09:29:18;;;;;;;3.70;1.60;;;;;;;;;;5053945;28;20045;-59
2023/07/06 09:31:44;;;;;;;5.50;1.83;;;;;;;;;;5053843;28;20056;-59
2023/07/06 09:34:27;;;;;;;4.22;2.00;;;;;;;;;;5053702;28;20282;-58
2023/07/06 09:36:54;;;;;;;3.80;1.60;;;;;;;;;;5053793;28;20053;-59
2023/07/06 09:39:21;;;;;;;3.50;1.95;;;;;;;;;;5053547;28;20562;-58
2023/07/06 09:41:47;;;;;;;3.42;1.60;;;;;;;;;;5053215;28;20048;-58
2023/07/06 09:44:21;;;;;;;3.80;1.67;;;;;;;;;;5053596;28;20052;-58
2023/07/06 09:46:47;;;;;;;5.38;1.80;;;;;;;;;;5053435;28;20045;-59
2023/07/06 09:49:17;;;;;;;4.60;1.77;;;;;;;;;;5053496;28;20096;-58
2023/07/06 09:51:46;;;;;;;2.67;1.60;;;;;;;;;;5053782;28;20045;-58
2023/07/06 09:54:17;;;;;;;5.60;1.77;;;;;;;;;;5053553;28;20499;-58
2023/07/06 09:56:44;;;;;;;2.47;1.65;;;;;;;;;;5053541;28;20049;-58
2023/07/06 09:59:11;;;;;;;2.33;1.67;;;;;;;;;;5053468;28;20134;-59
2023/07/06 10:01:48;;;;;;;3.53;1.85;;;;;;;;;;5053121;28;20507;-59
2023/07/06 10:04:33;;;;;;;1.77;1.30;;;;;;;;;;5053540;28;20053;-58
2023/07/06 10:07:18;;;;;;;3.20;1.70;;;;;;;;;;5053436;28;20098;-59
2023/07/06 10:09:54;;;;;;;4.05;1.88;;;;;;;;;;5053133;28;20068;-59
2023/07/06 10:12:26;;;;;;;4.93;1.83;;;;;;;;;;5053389;28;20451;-58
2023/07/06 10:14:53;;;;;;;3.88;1.60;;;;;;;;;;5053298;28;20412;-58
2023/07/06 10:17:46;;;;;;;3.13;1.50;;;;;;;;;;5053145;28;20037;-59
2023/07/06 10:20:17;;;;;;;4.05;2.00;;;;;;;;;;5052222;28;20080;-58
2023/07/06 10:23:04;;;;;;;3.58;1.75;;;;;;;;;;5052863;28;20049;-58
2023/07/06 10:25:35;;;;;;;2.38;1.67;;;;;;;;;;5052781;28;20045;-58
2023/07/06 10:28:15;;;;;;;3.50;1.60;;;;;;;;;;5052724;28;20052;-58
2023/07/06 10:30:45;;;;;;;3.35;1.67;;;;;;;;;;5052852;28;20099;-58
2023/07/06 10:33:20;;;;;;;3.33;1.70;;;;;;;;;;5052590;28;20049;-58
2023/07/06 10:35:50;;;;;;;2.38;1.50;;;;;;;;;;5052749;28;20111;-58
2023/07/06 10:38:17;;;;;;;2.30;1.40;;;;;;;;;;5052469;28;20037;-59
2023/07/06 10:40:44;;;;;;;;;;;;;;;;;;5053216;28;20067;-59
2023/07/06 10:43:13;;;;;;;2.35;1.70;;;;;;;;;;5052391;28;19920;-58
2023/07/06 10:45:42;;;;;;;2.95;1.63;;;;;;;;;;5052680;28;20440;-59
2023/07/06 10:48:21;;;;;;;3.90;1.90;;;;;;;;;;5052136;28;20057;-59
2023/07/06 10:50:52;;;;;;;3.38;1.30;;;;;;;;;;5052551;28;20052;-59
2023/07/06 10:53:39;;;;;;;3.10;1.20;;;;;;;;;;5051829;28;20147;-59
2023/07/06 10:56:12;;;;;;;1.83;1.40;;;;;;;;;;5052085;28;20507;-59
2023/07/06 10:58:48;;;;;;;3.28;1.35;;;;;;;;;;5052618;28;20044;-59
2023/07/06 11:01:16;;;;;;;2.38;1.40;;;;;;;;;;5052191;28;20063;-59
2023/07/06 11:03:43;;;;;;;3.90;1.48;;;;;;;;;;5052153;28;20264;-59
2023/07/06 11:06:11;;;;;;;1.48;1.27;;;;;;;;;;5052001;28;20140;-59
2023/07/06 11:08:56;;;;;;;1.60;1.40;;;;;;;;;;5052040;28;20052;-59
2023/07/06 11:11:26;;;;;;;5.10;1.33;;;;;;;;;;5052146;28;20040;-59
2023/07/06 11:13:53;;;;;;;2.00;1.20;;;;;;;;;;5052253;28;20048;-59
2023/07/06 11:16:22;;;;;;;3.80;1.30;;;;;;;;;;5052100;28;20052;-59
2023/07/06 11:18:51;;;;;;;1.63;1.52;;;;;;;;;;5051699;28;20049;-59
2023/07/06 11:21:18;;;;;;;3.80;1.48;;;;;;;;;;5051971;28;20068;-59
2023/07/06 11:23:48;;;;;;;3.35;1.77;;;;;;;;;;5051967;28;20095;-58
2023/07/06 11:26:27;;;;;;;2.42;1.75;;;;;;;;;;5051990;28;20432;-59
2023/07/06 11:28:53;;;;;;;1.75;1.50;;;;;;;;;;5051671;28;20049;-59
2023/07/06 11:31:27;;;;;;;2.42;1.67;;;;;;;;;;5041161;28;20088;-59
2023/07/06 11:34:00;;;;;;;3.17;1.73;;;;;;;;;;5048983;28;20140;-59
2023/07/06 11:36:39;;;;;;;2.50;1.40;;;;;;;;;;5051711;28;20067;-59
2023/07/06 11:39:20;;;;;;;2.55;1.30;;;;;;;;;;5051458;28;20040;-59
2023/07/06 11:41:53;;;;;;;2.50;1.33;;;;;;;;;;5051513;28;20504;-59
2023/07/06 11:44:39;;;;;;;2.95;1.38;;;;;;;;;;5051746;28;20057;-59
2023/07/06 11:47:15;;;;;;;3.83;1.52;;;;;;;;;;5051483;28;20083;-59
2023/07/06 11:49:42;;;;;;;3.20;1.60;;;;;;;;;;5051659;28;20056;-59
2023/07/06 11:52:13;;;;;;;2.85;1.95;;;;;;;;;;5051280;28;20049;-59
2023/07/06 11:54:54;;;;;;;1.83;1.42;;;;;;;;;;5051354;28;20532;-59
2023/07/06 11:57:24;;;;;;;2.45;1.90;;;;;;;;;;5051346;28;20052;-59
2023/07/06 12:02:58;;;;;;;3.33;1.42;;;;;;;;;;5051665;28;20052;-59
2023/07/06 12:05:29;;;;;;;2.45;1.63;;;;;;;;;;5055148;28;20045;-59
2023/07/06 12:07:57;;;;;;;3.00;1.48;;;;;;;;;;5055616;28;20072;-59
2023/07/06 12:10:24;;;;;;;2.67;1.58;;;;;;;;;;5055373;28;20106;-59
2023/07/06 12:12:52;;;;;;;;;;;;;;;;;;5055976;28;20068;-59
2023/07/06 12:15:21;;;;;;;3.83;1.40;;;;;;;;;;5055437;28;19932;-59
2023/07/06 12:17:55;;;;;;;3.65;1.48;;;;;;;;;;5055425;28;20049;-59
2023/07/06 12:20:25;;;;;;;2.92;1.67;;;;;;;;;;5055253;28;20456;-59
2023/07/06 12:22:53;;;;;;;3.17;1.73;;;;;;;;;;5055253;28;20049;-58
2023/07/06 12:25:23;;;;;;;2.25;1.60;;;;;;;;;;5055242;28;20079;-58
2023/07/06 12:27:49;;;;;;;2.50;1.50;;;;;;;;;;5055325;28;20080;-59
2023/07/06 12:30:17;;;;;;;2.97;1.52;;;;;;;;;;5055019;28;20049;-59
2023/07/06 12:32:47;;;;;;;3.40;1.40;;;;;;;;;;5054877;28;20045;-59
2023/07/06 12:35:14;;;;;;;2.40;1.38;;;;;;;;;;5054759;28;20091;-59
2023/07/06 12:37:43;;;;;;;;;;;;;;;;;;5055261;28;20044;-58
2023/07/06 12:40:20;;;;;;;3.25;1.35;;;;;;;;;;5055026;28;19978;-59
2023/07/06 12:42:47;;;;;;;2.60;1.50;;;;;;;;;;5054699;28;20045;-59
2023/07/06 12:45:15;;;;;;;2.17;1.50;;;;;;;;;;5054935;28;20052;-59
2023/07/06 12:47:43;;;;;;;1.67;1.17;;;;;;;;;;5054409;28;20053;-59
2023/07/06 12:50:14;;;;;;;4.95;1.40;;;;;;;;;;5054568;28;20127;-59
2023/07/06 12:52:42;;;;;;;2.72;1.52;;;;;;;;;;5054511;28;20084;-59
2023/07/06 12:55:14;;;;;;;2.88;1.40;;;;;;;;;;5054535;28;20041;-59
2023/07/06 12:57:43;;;;;;;2.85;1.27;;;;;;;;;;5054555;28;20094;-58
2023/07/06 13:00:23;;;;;;;1.75;1.58;;;;;;;;;;5054632;28;20400;-59
2023/07/06 13:02:57;;;;;;;2.22;1.30;;;;;;;;;;5054381;28;20059;-59
2023/07/06 13:05:25;;;;;;;2.67;1.35;;;;;;;;;;5054307;28;20102;-59
2023/07/06 13:07:52;;;;;;;2.53;1.30;;;;;;;;;;5054411;28;20048;-59
2023/07/06 13:10:18;;;;;;;;;;;;;;;;;;5049306;28;20042;-58
2023/07/06 13:12:50;;;;;;;1.90;1.38;;;;;;;;;;5045740;28;19924;-58
2023/07/06 13:15:21;;;;;;;3.38;1.75;;;;;;;;;;5053529;28;20045;-59
2023/07/06 13:17:52;;;;;;;2.85;1.25;;;;;;;;;;5054132;28;20408;-58
2023/07/06 13:20:19;;;;;;;2.45;1.30;;;;;;;;;;5053972;28;20087;-59
2023/07/06 13:22:45;;;;;;;2.13;1.20;;;;;;;;;;5054317;28;20101;-59
2023/07/06 13:25:17;;;;;;;2.80;1.75;;;;;;;;;;5054175;28;20123;-59
2023/07/06 13:27:45;;;;;;;1.83;1.27;;;;;;;;;;5054260;28;20080;-59
2023/07/06 13:30:12;;;;;;;2.85;1.10;;;;;;;;;;5054060;28;20136;-59
2023/07/06 13:32:38;;;;;;;;;;;;;;;;;;5054347;28;20484;-59
2023/07/06 13:35:06;;;;;;;;;;;;;;;;;;5054215;28;20299;-59
2023/07/06 13:37:32;;;;;;;2.67;1.35;;;;;;;;;;5053585;28;19925;-58
2023/07/06 13:39:59;;;;;;;2.13;1.30;;;;;;;;;;5053791;28;20049;-59
2023/07/06 13:42:28;;;;;;;4.10;1.50;;;;;;;;;;5053632;28;20059;-58
2023/07/06 13:44:55;;;;;;;3.65;1.40;;;;;;;;;;5053757;28;20060;-59
2023/07/06 13:47:22;;;;;;;2.92;1.60;;;;;;;;;;5053336;28;20057;-58
2023/07/06 13:49:49;;;;;;;4.28;1.35;;;;;;;;;;5053504;28;20130;-58
2023/07/06 13:52:20;;;;;;;2.42;1.20;;;;;;;;;;5053690;28;20153;-58
2023/07/06 13:54:46;;;;;;;2.92;1.35;;;;;;;;;;5053305;28;20080;-59
2023/07/06 13:57:13;;;;;;;1.73;1.38;;;;;;;;;;5053566;28;20409;-59
2023/07/06 13:59:39;;;;;;;2.28;1.25;;;;;;;;;;5053251;28;20378;-59
2023/07/06 14:02:06;;;;;;;2.47;1.27;;;;;;;;;;5053489;28;20519;-59
2023/07/06 14:04:33;;;;;;;;;;;;;;;;;;5053955;28;20052;-59
2023/07/06 14:06:59;;;;;;;1.83;1.17;;;;;;;;;;5053197;28;19921;-59
2023/07/06 14:09:26;;;;;;;;;;;;;;;;;;5053471;28;20049;-59
2023/07/06 14:11:52;;;;;;;2.65;1.08;;;;;;;;;;5052918;28;19995;-59
2023/07/06 14:14:20;;;;;;;;;;;;;;;;;;5053791;28;20059;-59
2023/07/06 14:16:46;;;;;;;1.73;1.00;;;;;;;;;;5053133;28;20428;-59
2023/07/06 14:19:13;;;;;;;2.42;1.52;;;;;;;;;;5052891;28;20053;-59
2023/07/06 14:21:41;;;;;;;3.83;0.95;;;;;;;;;;5053131;28;20135;-59
2023/07/06 14:24:08;;;;;;;1.05;0.80;;;;;;;;;;5052913;28;20131;-59
2023/07/06 14:26:34;;;;;;;2.10;0.80;;;;;;;;;;5052811;28;20045;-59
2023/07/06 14:29:01;;;;;;;;;;;;;;;;;;5052350;28;20535;-59
2023/07/06 14:31:28;;;;;;;1.42;1.02;;;;;;;;;;5052841;28;19932;-59
2023/07/06 14:33:54;;;;;;;2.67;1.10;;;;;;;;;;5052587;28;20409;-59
2023/07/06 14:36:21;;;;;;;2.38;0.90;;;;;;;;;;5052665;28;20045;-59
2023/07/06 14:38:48;;;;;;;0.90;0.60;;;;;;;;;;5052799;28;20060;-59
2023/07/06 14:41:15;;;;;;;2.53;0.77;;;;;;;;;;5052790;28;20044;-60
2023/07/06 14:43:41;;;;;;;2.45;1.02;;;;;;;;;;5052648;28;20052;-59
2023/07/06 14:46:09;;;;;;;4.90;1.25;;;;;;;;;;5052306;28;20099;-59
2023/07/06 14:48:36;;;;;;;2.55;1.08;;;;;;;;;;5052357;28;20488;-59
2023/07/06 14:51:06;;;;;;;1.70;0.90;;;;;;;;;;5052482;28;20057;-59
2023/07/06 14:53:35;;;;;;;0.75;0.70;;;;;;;;;;5052344;28;20045;-59
2023/07/06 14:56:01;;;;;;;2.40;1.00;;;;;;;;;;5052400;28;20496;-59
2023/07/06 14:58:28;;;;;;;2.63;0.93;;;;;;;;;;5052291;28;20041;-59
2023/07/06 15:00:54;;;;;;;1.60;0.88;;;;;;;;;;5052483;28;20103;-59